createdAt,value
2022-10-26T00:00:04.662Z,2.38
2022-10-26T00:02:31.094Z,2.60
2022-10-26T00:04:57.556Z,2.10
2022-10-26T00:07:23.957Z,3.10
2022-10-26T00:09:50.252Z,2.20
2022-10-26T00:12:16.545Z,1.95
2022-10-26T00:14:42.835Z,2.20
2022-10-26T00:17:09.116Z,1.83
2022-10-26T00:19:35.575Z,2.95
2022-10-26T00:22:01.983Z,4.35
2022-10-26T00:24:28.386Z,3.97
2022-10-26T00:26:54.672Z,3.42
2022-10-26T00:29:20.972Z,3.38
2022-10-26T00:31:47.285Z,3.95
2022-10-26T00:34:13.555Z,3.22
2022-10-26T00:36:39.851Z,3.17
2022-10-26T00:39:06.153Z,4.07
2022-10-26T00:41:33.319Z,3.47
2022-10-26T00:44:00.012Z,4.63
2022-10-26T00:46:37.112Z,2.10
2022-10-26T00:49:14.450Z,1.63
2022-10-26T00:51:50.239Z,2.15
2022-10-26T00:54:20.517Z,2.70
2022-10-26T00:56:49.234Z,2.17
2022-10-26T00:59:16.161Z,2.63
2022-10-26T01:01:44.078Z,1.85
2022-10-26T01:04:10.867Z,2.25
2022-10-26T01:06:37.821Z,1.33
2022-10-26T01:09:04.574Z,2.00
2022-10-26T01:11:30.922Z,2.50
2022-10-26T01:13:58.705Z,2.00
2022-10-26T01:16:33.823Z,1.73
2022-10-26T01:19:10.388Z,1.33
2022-10-26T01:21:37.234Z,2.63
2022-10-26T01:24:03.521Z,2.22
2022-10-26T01:26:29.776Z,1.60
2022-10-26T01:29:07.515Z,2.20
2022-10-26T01:31:38.629Z,2.10
2022-10-26T01:34:09.795Z,1.95
2022-10-26T01:36:42.475Z,2.05
2022-10-26T01:39:16.552Z,1.88
2022-10-26T01:41:42.807Z,1.17
2022-10-26T01:44:32.523Z,1.77
2022-10-26T01:46:59.727Z,1.75
2022-10-26T01:49:28.045Z,1.83
2022-10-26T01:51:54.381Z,1.77
2022-10-26T01:54:20.678Z,2.30
2022-10-26T01:56:50.060Z,2.03
2022-10-26T01:59:22.340Z,1.92
2022-10-26T02:01:48.824Z,1.58
2022-10-26T02:04:21.454Z,1.65
2022-10-26T02:07:06.383Z,2.10
2022-10-26T02:09:40.794Z,1.70
2022-10-26T02:12:13.105Z,1.63
2022-10-26T02:14:47.871Z,2.03
2022-10-26T02:17:18.765Z,1.70
2022-10-26T02:19:49.884Z,2.00
2022-10-26T02:22:21.964Z,2.13
2022-10-26T02:24:49.720Z,1.80
2022-10-26T02:27:20.718Z,1.88
2022-10-26T02:29:48.523Z,1.88
2022-10-26T02:32:15.160Z,2.40
2022-10-26T02:34:44.285Z,2.80
2022-10-26T02:37:10.924Z,3.90
2022-10-26T02:39:39.167Z,1.40
2022-10-26T02:42:06.476Z,1.45
2022-10-26T02:44:44.806Z,2.60
2022-10-26T02:47:11.572Z,1.20
2022-10-26T02:49:38.070Z,2.22
2022-10-26T02:52:30.706Z,2.10
2022-10-26T02:55:02.428Z,2.55
2022-10-26T02:57:49.028Z,1.63
2022-10-26T03:00:16.089Z,1.88
2022-10-26T03:02:46.132Z,2.13
2022-10-26T03:05:17.976Z,1.70
2022-10-26T03:07:44.264Z,1.35
2022-10-26T03:10:10.781Z,1.52
2022-10-26T03:12:37.142Z,2.47
2022-10-26T03:15:04.056Z,2.10
2022-10-26T03:17:30.353Z,2.10
2022-10-26T03:19:56.701Z,1.90
2022-10-26T03:22:23.011Z,2.03
2022-10-26T03:24:49.301Z,2.30
2022-10-26T03:27:15.719Z,1.83
2022-10-26T03:29:42.016Z,2.92
2022-10-26T03:32:08.474Z,2.25
2022-10-26T03:34:34.782Z,2.60
2022-10-26T03:37:01.070Z,1.77
2022-10-26T03:39:27.412Z,2.00
2022-10-26T03:41:55.414Z,2.10
2022-10-26T03:44:22.329Z,2.30
2022-10-26T03:46:48.631Z,2.42
2022-10-26T03:49:14.912Z,2.58
2022-10-26T03:51:41.191Z,2.17
2022-10-26T03:54:07.545Z,2.00
2022-10-26T03:56:33.816Z,1.65
2022-10-26T03:59:00.171Z,1.90
2022-10-26T04:01:26.528Z,2.30
2022-10-26T04:03:52.965Z,1.88
2022-10-26T04:06:19.323Z,2.47
2022-10-26T04:08:45.612Z,2.03
2022-10-26T04:11:11.902Z,1.80
2022-10-26T04:13:38.232Z,1.95
2022-10-26T04:16:04.670Z,2.00
2022-10-26T04:18:30.980Z,1.63
2022-10-26T04:21:00.663Z,2.03
2022-10-26T04:23:26.992Z,2.33
2022-10-26T04:25:53.331Z,2.00
2022-10-26T04:28:19.641Z,1.70
2022-10-26T04:30:47.412Z,1.52
2022-10-26T04:33:13.706Z,1.65
2022-10-26T04:35:40.717Z,1.80
2022-10-26T04:38:07.466Z,2.30
2022-10-26T04:40:34.320Z,2.30
2022-10-26T04:43:00.858Z,2.03
2022-10-26T04:45:28.642Z,1.95
2022-10-26T04:48:01.690Z,1.80
2022-10-26T04:50:28.485Z,2.38
2022-10-26T04:52:55.004Z,2.50
2022-10-26T04:55:21.307Z,1.98
2022-10-26T04:57:47.830Z,1.92
2022-10-26T05:00:14.425Z,2.67
2022-10-26T05:02:40.792Z,1.65
2022-10-26T05:05:09.928Z,1.60
2022-10-26T05:07:39.040Z,1.88
2022-10-26T05:10:05.516Z,1.92
2022-10-26T05:12:31.940Z,1.75
2022-10-26T05:14:59.132Z,1.85
2022-10-26T05:17:26.031Z,1.75
2022-10-26T05:19:55.490Z,1.58
2022-10-26T05:22:22.285Z,1.75
2022-10-26T05:24:48.671Z,1.17
2022-10-26T05:27:14.982Z,2.90
2022-10-26T05:29:41.268Z,2.40
2022-10-26T05:32:07.631Z,2.00
2022-10-26T05:34:37.156Z,2.47
2022-10-26T05:37:05.828Z,1.80
2022-10-26T05:39:32.128Z,2.00
2022-10-26T05:41:58.405Z,1.40
2022-10-26T05:44:24.716Z,1.88
2022-10-26T05:46:51.024Z,2.03
2022-10-26T05:49:17.410Z,2.55
2022-10-26T05:51:43.690Z,1.55
2022-10-26T05:54:13.623Z,1.92
2022-10-26T05:56:41.118Z,1.85
2022-10-26T05:59:11.421Z,1.88
2022-10-26T06:01:37.852Z,1.90
2022-10-26T06:04:12.713Z,1.73
2022-10-26T06:06:42.112Z,1.23
2022-10-26T06:09:10.808Z,2.00
2022-10-26T06:11:37.574Z,1.67
2022-10-26T06:14:04.111Z,1.40
2022-10-26T06:16:30.460Z,2.22
2022-10-26T06:19:02.886Z,2.17
2022-10-26T06:21:29.150Z,1.38
2022-10-26T06:24:02.537Z,1.73
2022-10-26T06:26:36.820Z,1.95
2022-10-26T06:29:03.114Z,1.70
2022-10-26T06:31:30.533Z,1.60
2022-10-26T06:33:58.955Z,1.80
2022-10-26T06:36:27.443Z,1.75
2022-10-26T06:39:12.451Z,1.45
2022-10-26T06:41:38.937Z,1.92
2022-10-26T06:44:05.493Z,1.50
2022-10-26T06:46:48.051Z,1.27
2022-10-26T06:49:14.917Z,1.70
2022-10-26T06:51:43.359Z,2.05
2022-10-26T06:54:22.256Z,1.50
2022-10-26T06:56:48.996Z,1.50
2022-10-26T06:59:18.425Z,1.77
2022-10-26T07:01:44.876Z,2.10
2022-10-26T07:04:11.235Z,2.22
2022-10-26T07:06:39.282Z,1.55
2022-10-26T07:09:06.067Z,1.80
2022-10-26T07:11:32.366Z,1.90
2022-10-26T07:13:58.739Z,1.88
2022-10-26T07:16:25.030Z,1.92
2022-10-26T07:18:51.374Z,2.08
2022-10-26T07:21:17.689Z,3.00
2022-10-26T07:23:44.020Z,1.80
2022-10-26T07:26:10.345Z,1.48
2022-10-26T07:28:36.636Z,2.22
2022-10-26T07:31:05.471Z,2.63
2022-10-26T07:33:31.803Z,1.30
2022-10-26T07:36:01.368Z,2.25
2022-10-26T07:38:27.645Z,1.73
2022-10-26T07:40:54.749Z,1.60
2022-10-26T07:43:21.220Z,1.92
2022-10-26T07:45:51.450Z,1.80
2022-10-26T07:48:17.891Z,1.52
2022-10-26T07:50:44.215Z,1.70
2022-10-26T07:53:10.524Z,1.83
2022-10-26T07:55:36.827Z,1.90
2022-10-26T07:58:03.146Z,1.52
2022-10-26T08:00:29.970Z,2.35
2022-10-26T08:02:56.538Z,2.08
2022-10-26T08:05:23.126Z,1.98
2022-10-26T08:07:49.746Z,1.45
2022-10-26T08:10:16.342Z,1.55
2022-10-26T08:12:42.847Z,2.20
2022-10-26T08:15:09.643Z,1.35
2022-10-26T08:17:35.978Z,1.92
2022-10-26T08:20:02.314Z,2.53
2022-10-26T08:22:29.560Z,1.60
2022-10-26T08:24:55.928Z,1.52
2022-10-26T08:27:22.215Z,2.03
2022-10-26T08:29:48.548Z,1.85
2022-10-26T08:32:14.905Z,1.80
2022-10-26T08:34:41.187Z,1.90
2022-10-26T08:37:07.492Z,2.00
2022-10-26T08:39:33.862Z,1.55
2022-10-26T08:42:38.572Z,1.48
2022-10-26T08:45:12.624Z,1.55
2022-10-26T08:47:44.849Z,1.90
2022-10-26T08:50:13.527Z,1.67
2022-10-26T08:52:52.367Z,1.90
2022-10-26T08:55:20.031Z,1.80
2022-10-26T08:57:48.386Z,1.50
2022-10-26T09:00:17.986Z,1.90
2022-10-26T09:02:44.341Z,1.35
2022-10-26T09:05:16.325Z,1.52
2022-10-26T09:08:08.061Z,1.60
2022-10-26T09:10:39.813Z,1.58
2022-10-26T09:13:24.787Z,1.40
2022-10-26T09:16:09.675Z,1.83
2022-10-26T09:18:57.709Z,1.55
2022-10-26T09:21:32.556Z,1.75
2022-10-26T09:24:01.503Z,1.30
2022-10-26T09:26:27.782Z,1.88
2022-10-26T09:28:55.339Z,0.82
2022-10-26T09:31:22.130Z,1.52
2022-10-26T09:33:48.526Z,1.70
2022-10-26T09:36:19.616Z,1.52
2022-10-26T09:38:59.857Z,1.42
2022-10-26T09:41:32.922Z,1.33
2022-10-26T09:44:06.159Z,1.60
2022-10-26T09:46:44.640Z,1.40
2022-10-26T09:49:11.565Z,1.52
2022-10-26T09:51:38.920Z,1.58
2022-10-26T09:54:14.740Z,1.60
2022-10-26T09:56:41.811Z,1.27
2022-10-26T09:59:10.370Z,1.40
2022-10-26T10:01:40.206Z,1.63
2022-10-26T10:04:16.724Z,1.65
2022-10-26T10:06:43.778Z,1.50
2022-10-26T10:09:14.104Z,1.52
2022-10-26T10:11:41.582Z,1.70
2022-10-26T10:14:09.043Z,1.75
2022-10-26T10:16:35.878Z,1.70
2022-10-26T10:19:02.264Z,1.55
2022-10-26T10:21:37.488Z,1.70
2022-10-26T10:24:20.784Z,1.90
2022-10-26T10:27:00.833Z,1.60
2022-10-26T10:29:28.210Z,1.42
2022-10-26T10:31:58.515Z,1.80
2022-10-26T10:34:24.795Z,1.58
2022-10-26T10:36:51.431Z,1.48
2022-10-26T10:39:34.388Z,1.85
2022-10-26T10:42:01.119Z,1.35
2022-10-26T10:44:31.901Z,1.38
2022-10-26T10:47:05.580Z,1.23
2022-10-26T10:49:32.418Z,1.35
2022-10-26T10:51:59.325Z,1.30
2022-10-26T10:54:28.976Z,1.60
2022-10-26T10:56:57.623Z,1.45
2022-10-26T10:59:42.941Z,1.70
2022-10-26T11:02:21.620Z,1.60
2022-10-26T11:04:56.129Z,1.77
2022-10-26T11:07:23.409Z,1.25
2022-10-26T11:09:50.969Z,1.40
2022-10-26T11:12:19.661Z,1.95
2022-10-26T11:14:49.562Z,1.90
2022-10-26T11:17:19.347Z,1.73
2022-10-26T11:19:45.660Z,1.48
2022-10-26T11:22:14.840Z,1.40
2022-10-26T11:24:49.889Z,1.73
2022-10-26T11:27:25.686Z,1.75
2022-10-26T11:29:51.963Z,1.83
2022-10-26T11:32:21.039Z,1.52
2022-10-26T11:34:53.326Z,1.30
2022-10-26T11:37:23.953Z,1.98
2022-10-26T11:40:10.610Z,1.27
2022-10-26T11:42:42.034Z,1.42
2022-10-26T11:45:26.909Z,1.60
2022-10-26T11:47:57.141Z,1.45
2022-10-26T11:50:29.521Z,1.50
2022-10-26T11:53:00.863Z,1.63
2022-10-26T11:55:28.438Z,1.50
2022-10-26T11:57:54.790Z,1.75
2022-10-26T12:00:22.040Z,1.20
2022-10-26T12:02:55.606Z,1.15
2022-10-26T12:05:21.908Z,1.17
2022-10-26T12:07:50.406Z,2.05
2022-10-26T12:10:36.280Z,1.40
2022-10-26T12:13:09.632Z,1.48
2022-10-26T12:16:02.807Z,1.75
2022-10-26T12:18:56.302Z,1.08
2022-10-26T12:21:28.614Z,1.35
2022-10-26T12:23:59.234Z,1.65
2022-10-26T12:26:28.583Z,1.80
2022-10-26T12:29:03.935Z,1.23
2022-10-26T12:31:33.517Z,1.35
2022-10-26T12:34:00.361Z,1.30
2022-10-26T12:36:45.385Z,1.33
2022-10-26T12:39:30.267Z,1.50
2022-10-26T12:41:58.011Z,1.10
2022-10-26T12:44:36.248Z,1.50
2022-10-26T12:47:03.290Z,1.40
2022-10-26T12:49:48.468Z,2.78
2022-10-26T12:52:18.457Z,1.33
2022-10-26T12:55:08.092Z,1.30
2022-10-26T12:57:41.571Z,1.27
2022-10-26T13:00:13.089Z,1.38
2022-10-26T13:02:59.722Z,1.25
2022-10-26T13:05:44.119Z,1.10
2022-10-26T13:08:11.781Z,1.40
2022-10-26T13:10:40.341Z,1.45
2022-10-26T13:13:07.850Z,0.98
2022-10-26T13:15:38.317Z,1.38
2022-10-26T13:18:14.252Z,1.25
2022-10-26T13:20:52.522Z,1.40
2022-10-26T13:23:24.309Z,1.60
2022-10-26T13:26:06.118Z,1.05
2022-10-26T13:28:38.253Z,1.85
2022-10-26T13:31:10.317Z,1.27
2022-10-26T13:33:38.148Z,1.13
2022-10-26T13:36:11.336Z,1.25
2022-10-26T13:38:37.834Z,1.10
2022-10-26T13:41:11.746Z,0.82
2022-10-26T13:43:38.440Z,0.90
2022-10-26T13:46:04.940Z,1.05
2022-10-26T13:48:38.797Z,1.13
2022-10-26T13:51:12.247Z,2.08
2022-10-26T13:53:45.382Z,1.67
2022-10-26T13:56:38.197Z,1.33
2022-10-26T13:59:12.551Z,1.48
2022-10-26T14:01:39.347Z,1.20
2022-10-26T14:04:18.626Z,0.90
2022-10-26T14:06:51.540Z,1.27
2022-10-26T14:09:18.593Z,1.10
2022-10-26T14:11:44.879Z,1.50
2022-10-26T14:14:15.935Z,1.10
2022-10-26T14:16:46.504Z,1.13
2022-10-26T14:19:15.382Z,2.05
2022-10-26T14:21:43.070Z,0.85
2022-10-26T14:24:27.507Z,1.33
2022-10-26T14:26:58.166Z,1.50
2022-10-26T14:29:25.472Z,1.20
2022-10-26T14:31:52.371Z,1.30
2022-10-26T14:34:19.139Z,1.35
2022-10-26T14:36:48.234Z,1.02
2022-10-26T14:39:33.358Z,1.10
2022-10-26T14:42:01.555Z,1.15
2022-10-26T14:44:28.980Z,1.20
2022-10-26T14:46:55.732Z,1.23
2022-10-26T14:49:27.045Z,1.30
2022-10-26T14:51:57.702Z,1.30
2022-10-26T14:54:25.104Z,1.15
2022-10-26T14:56:52.464Z,1.15
2022-10-26T14:59:21.864Z,1.42
2022-10-26T15:01:57.507Z,1.20
2022-10-26T15:09:32.964Z,2.15
2022-10-26T15:11:59.609Z,1.50
2022-10-26T15:14:25.922Z,1.13
2022-10-26T15:16:56.423Z,1.00
2022-10-26T15:19:24.006Z,1.38
2022-10-26T15:21:51.228Z,1.25
2022-10-26T15:24:25.270Z,1.38
2022-10-26T15:26:52.065Z,0.95
2022-10-26T15:29:37.652Z,1.35
2022-10-26T15:34:36.226Z,0.75
2022-10-26T15:37:02.652Z,1.20
2022-10-26T15:39:29.238Z,1.05
2022-10-26T15:41:55.900Z,1.08
2022-10-26T15:44:22.653Z,0.80
2022-10-26T15:46:49.261Z,1.10
2022-10-26T15:49:17.199Z,1.17
2022-10-26T15:51:44.853Z,1.25
2022-10-26T15:54:11.191Z,1.20
2022-10-26T15:56:39.738Z,0.98
2022-10-26T15:59:11.799Z,1.00
2022-10-26T16:01:38.294Z,1.38
2022-10-26T16:04:04.772Z,1.00
2022-10-26T16:06:32.669Z,1.20
2022-10-26T16:09:00.469Z,1.13
2022-10-26T16:11:26.959Z,1.40
2022-10-26T16:13:54.492Z,1.00
2022-10-26T16:16:22.571Z,1.40
2022-10-26T16:18:58.020Z,1.08
2022-10-26T16:21:32.663Z,1.10
2022-10-26T16:23:58.979Z,1.40
2022-10-26T16:26:25.294Z,0.98
2022-10-26T16:28:51.867Z,1.17
2022-10-26T16:31:19.337Z,1.55
2022-10-26T16:33:45.726Z,0.90
2022-10-26T16:36:12.860Z,0.73
2022-10-26T16:38:39.344Z,1.42
2022-10-26T16:41:08.776Z,1.40
2022-10-26T16:43:36.480Z,1.52
2022-10-26T16:46:09.923Z,1.05
2022-10-26T16:48:36.933Z,1.10
2022-10-26T16:51:21.964Z,1.33
2022-10-26T16:53:49.223Z,1.40
2022-10-26T16:56:16.846Z,1.23
2022-10-26T16:58:43.333Z,1.33
2022-10-26T17:01:10.265Z,1.42
2022-10-26T17:03:36.696Z,1.80
2022-10-26T17:06:04.343Z,1.13
2022-10-26T17:08:31.756Z,1.35
2022-10-26T17:11:04.025Z,1.38
2022-10-26T17:13:30.451Z,2.25
2022-10-26T17:16:26.475Z,1.83
2022-10-26T17:18:53.246Z,1.35
2022-10-26T17:21:20.796Z,1.75
2022-10-26T17:23:47.094Z,1.48
2022-10-26T17:26:14.557Z,1.70
2022-10-26T17:28:40.860Z,1.35
2022-10-26T17:31:08.451Z,1.42
2022-10-26T17:33:35.751Z,1.63
2022-10-26T17:36:02.991Z,1.08
2022-10-26T17:38:32.871Z,1.52
2022-10-26T17:41:06.531Z,1.50
2022-10-26T17:43:33.714Z,1.30
2022-10-26T17:46:00.525Z,2.03
2022-10-26T17:48:27.772Z,1.30
2022-10-26T17:50:54.430Z,1.92
2022-10-26T17:53:20.813Z,1.40
2022-10-26T17:55:47.121Z,1.40
2022-10-26T17:58:13.443Z,1.25
2022-10-26T18:00:40.259Z,1.58
2022-10-26T18:03:08.072Z,1.98
2022-10-26T18:05:34.594Z,1.58
2022-10-26T18:08:00.910Z,1.60
2022-10-26T18:10:37.389Z,1.42
2022-10-26T18:13:04.060Z,1.55
2022-10-26T18:15:30.416Z,1.98
2022-10-26T18:17:58.470Z,1.30
2022-10-26T18:20:26.910Z,1.13
2022-10-26T18:22:53.306Z,1.30
2022-10-26T18:25:19.742Z,1.48
2022-10-26T18:27:46.091Z,1.10
2022-10-26T18:30:12.541Z,1.50
2022-10-26T18:32:38.880Z,1.25
2022-10-26T18:35:05.473Z,1.50
2022-10-26T18:37:31.839Z,1.25
2022-10-26T18:39:58.199Z,1.58
2022-10-26T18:42:24.672Z,1.42
2022-10-26T18:44:51.093Z,1.00
2022-10-26T18:47:17.487Z,1.63
2022-10-26T18:49:43.864Z,1.13
2022-10-26T18:52:10.691Z,1.48
2022-10-26T18:54:37.061Z,1.30
2022-10-26T18:57:03.463Z,1.30
2022-10-26T18:59:30.127Z,1.25
2022-10-26T19:01:56.532Z,1.40
2022-10-26T19:04:22.975Z,1.08
2022-10-26T19:06:50.571Z,1.30
2022-10-26T19:09:17.994Z,1.45
2022-10-26T19:11:44.693Z,1.02
2022-10-26T19:14:11.319Z,1.50
2022-10-26T19:16:45.998Z,1.30
2022-10-26T19:29:02.247Z,1.17
2022-10-26T19:31:29.101Z,1.10
2022-10-26T19:33:58.152Z,1.60
2022-10-26T19:36:24.586Z,1.38
2022-10-26T19:38:51.036Z,1.25
2022-10-26T19:41:17.427Z,1.77
2022-10-26T19:43:44.213Z,1.02
2022-10-26T19:46:12.630Z,1.00
2022-10-26T19:48:39.719Z,0.50
2022-10-26T19:51:06.472Z,1.48
2022-10-26T19:53:33.091Z,0.85
2022-10-26T19:56:01.347Z,0.85
2022-10-26T19:58:28.872Z,1.73
2022-10-26T20:03:28.960Z,1.50
2022-10-26T20:05:59.180Z,1.27
2022-10-26T20:08:25.626Z,1.40
2022-10-26T20:10:56.088Z,1.27
2022-10-26T20:13:22.580Z,1.15
2022-10-26T20:15:49.805Z,1.48
2022-10-26T20:18:16.502Z,1.70
2022-10-26T20:20:42.929Z,1.38
2022-10-26T20:23:09.644Z,1.55
2022-10-26T20:25:36.885Z,1.38
2022-10-26T20:28:04.382Z,1.90
2022-10-26T20:30:32.047Z,1.30
2022-10-26T20:32:59.090Z,1.50
2022-10-26T20:35:25.428Z,1.52
2022-10-26T20:37:52.293Z,1.20
2022-10-26T20:40:21.483Z,0.82
2022-10-26T20:45:28.160Z,1.17
2022-10-26T20:47:54.871Z,1.00
2022-10-26T20:50:21.892Z,1.20
2022-10-26T20:53:00.171Z,1.27
2022-10-26T20:55:41.636Z,1.10
2022-10-26T20:58:16.759Z,1.08
2022-10-26T21:00:46.244Z,1.10
2022-10-26T21:03:12.846Z,1.40
2022-10-26T21:05:43.370Z,1.58
2022-10-26T21:08:09.670Z,1.40
2022-10-26T21:10:35.959Z,1.67
2022-10-26T21:13:02.284Z,0.70
2022-10-26T21:15:28.572Z,1.30
2022-10-26T21:17:54.920Z,1.67
2022-10-26T21:20:21.586Z,1.20
2022-10-26T21:22:47.910Z,0.70
2022-10-26T21:25:14.212Z,0.57
2022-10-26T21:27:40.573Z,1.00
2022-10-26T21:30:07.273Z,1.45
2022-10-26T21:32:33.561Z,1.52
2022-10-26T21:34:59.830Z,1.73
2022-10-26T21:37:26.633Z,0.93
2022-10-26T21:39:53.561Z,1.13
2022-10-26T21:42:20.047Z,1.67
2022-10-26T21:44:46.468Z,1.70
2022-10-26T21:47:12.904Z,1.10
2022-10-26T21:52:10.890Z,0.52
2022-10-26T21:54:37.262Z,1.85
2022-10-26T21:57:03.603Z,1.38
2022-10-26T21:59:29.911Z,1.92
2022-10-26T22:01:56.370Z,1.40
2022-10-26T22:04:22.763Z,1.05
2022-10-26T22:06:49.048Z,1.30
2022-10-26T22:09:15.389Z,1.60
2022-10-26T22:11:41.737Z,1.58
2022-10-26T22:14:08.080Z,1.73
2022-10-26T22:16:34.451Z,1.58
2022-10-26T22:19:05.519Z,1.85
2022-10-26T22:21:33.164Z,1.65
2022-10-26T22:23:59.431Z,1.60
2022-10-26T22:26:25.731Z,1.38
2022-10-26T22:28:54.036Z,1.13
2022-10-26T22:31:21.811Z,1.58
2022-10-26T22:33:52.699Z,1.33
2022-10-26T22:36:19.359Z,1.10
2022-10-26T22:38:45.717Z,1.30
2022-10-26T22:41:12.009Z,1.38
2022-10-26T22:43:38.418Z,1.30
2022-10-26T22:46:14.325Z,1.17
2022-10-26T22:48:47.250Z,1.70
2022-10-26T22:51:23.242Z,1.50
2022-10-26T22:53:53.139Z,1.20
2022-10-26T22:56:19.594Z,1.23
2022-10-26T22:58:45.939Z,1.40
2022-10-26T23:01:14.179Z,0.80
2022-10-26T23:03:40.678Z,0.98
2022-10-26T23:06:07.937Z,1.02
2022-10-26T23:08:34.407Z,1.15
2022-10-26T23:11:01.584Z,1.27
2022-10-26T23:13:28.144Z,1.33
2022-10-26T23:15:54.635Z,0.95
2022-10-26T23:18:21.712Z,1.20
2022-10-26T23:20:48.901Z,1.00
2022-10-26T23:23:15.402Z,0.98
2022-10-26T23:25:41.697Z,1.08
2022-10-26T23:28:07.975Z,1.30
2022-10-26T23:30:34.340Z,1.08
2022-10-26T23:33:00.623Z,1.00
2022-10-26T23:35:26.904Z,0.50
2022-10-26T23:37:53.268Z,1.02
2022-10-26T23:40:19.544Z,0.60
2022-10-26T23:42:45.845Z,1.10
2022-10-26T23:45:12.182Z,0.88
2022-10-26T23:47:39.434Z,1.33
2022-10-26T23:50:05.961Z,1.15
2022-10-26T23:52:32.283Z,1.33
2022-10-26T23:54:58.567Z,1.30
2022-10-26T23:57:24.966Z,1.70
2022-10-26T23:59:51.404Z,1.30
